Time;durP1;ratioP1;P1;durP2;ratioP2;P2;SDS_P1;SDS_P2;PMS_P1;PMS_P2;Temp;Humidity;BMP_temperature;BMP_pressure;BME280_temperature;BME280_humidity;BME280_pressure;Samples;Min_cycle;Max_cycle;Signal;HPM_P1;HPM_P2
2022/02/24 00:00:52;;;;;;;;;;;;;;;18.26;55.39;100126.09;2057764;28;19929;-49
2022/02/24 00:01:53;;;;;;;;;;;;;;;18.26;55.30;100123.38;2059072;28;19927;-49
2022/02/24 00:02:53;;;;;;;;;;;;;;;18.26;55.20;100126.09;2059401;28;19928;-49
2022/02/24 00:03:54;;;;;;;;;;;;;;;18.26;55.39;100120.66;2058476;28;19928;-49
2022/02/24 00:04:54;;;;;;;;;;;;;;;18.26;55.30;100120.66;2058799;28;19921;-49
2022/02/24 00:05:57;;;;;;;;;;;;;;;18.27;55.32;100126.97;2057602;28;20469;-48
2022/02/24 00:06:57;;;;;;;;;;;;;;;18.26;55.20;100120.66;2047946;28;19949;-49
2022/02/24 00:07:59;;;;;;;;;;;;;;;18.25;55.20;100126.22;2049785;28;19944;-49
2022/02/24 00:08:59;;;;;;;;;;;;;;;18.24;55.37;100133.56;2057914;28;20147;-50
2022/02/24 00:09:59;;;;;;;;;;;;;;;18.23;55.29;100126.41;2058751;28;20821;-49
2022/02/24 00:11:00;;;;;;;;;;;;;;;18.23;55.42;100126.41;2058221;28;19948;-49
2022/02/24 00:12:02;;;;;;;;;;;;;;;18.21;55.50;100123.81;2060639;28;19921;-49
2022/02/24 00:13:02;;;;;;;;;;;;;;;18.20;55.38;100122.09;2049681;28;20314;-50
2022/02/24 00:14:03;;;;;;;;;;;;;;;18.19;55.64;100117.63;2048432;28;19945;-51
2022/02/24 00:15:05;;;;;;;;;;;;;;;18.20;55.39;100121.19;2056648;28;19925;-49
2022/02/24 00:16:05;;;;;;;;;;;;;;;18.18;55.58;100128.69;2059269;28;20248;-49
2022/02/24 00:17:07;;;;;;;;;;;;;;;18.17;55.45;100121.50;2054595;28;20809;-50
2022/02/24 00:18:07;;;;;;;;;;;;;;;18.16;55.51;100109.72;2058455;28;19961;-49
2022/02/24 00:19:08;;;;;;;;;;;;;;;18.16;55.63;100115.19;2058373;28;19922;-51
2022/02/24 00:20:09;;;;;;;;;;;;;;;18.15;55.67;100118.94;2058962;28;20036;-51
2022/02/24 00:21:09;;;;;;;;;;;;;;;18.14;55.73;100105.44;2059741;28;19909;-49
2022/02/24 00:22:09;;;;;;;;;;;;;;;18.14;55.73;100105.44;2056858;28;20196;-49
2022/02/24 00:23:10;;;;;;;;;;;;;;;18.13;55.57;100110.03;2060890;28;19963;-48
2022/02/24 00:24:10;;;;;;;;;;;;;;;18.12;55.70;100102.81;2057044;28;19928;-48
2022/02/24 00:25:10;;;;;;;;;;;;;;;18.12;55.81;100104.69;2057188;28;21066;-49
2022/02/24 00:26:11;;;;;;;;;;;;;;;18.12;55.64;100101.97;2060206;28;20023;-48
2022/02/24 00:27:11;;;;;;;;;;;;;;;18.11;55.58;100100.25;2056734;28;19921;-48
2022/02/24 00:28:11;;;;;;;;;;;;;;;18.11;55.79;100101.13;2058591;28;19917;-48
2022/02/24 00:29:12;;;;;;;;;;;;;;;18.11;55.75;100094.81;2057102;28;19928;-48
2022/02/24 00:30:12;;;;;;;;;;;;;;;18.12;55.63;100091.06;2057704;28;21568;-49
2022/02/24 00:31:12;;;;;;;;;;;;;;;18.13;55.48;100093.66;2059377;28;19921;-48
2022/02/24 00:32:13;;;;;;;;;;;;;;;18.13;55.48;100092.81;2062536;28;19945;-49
2022/02/24 00:33:13;;;;;;;;;;;;;;;18.12;55.62;100096.50;2060674;28;19927;-49
2022/02/24 00:34:15;;;;;;;;;;;;;;;18.10;55.75;100099.38;2060560;28;20164;-49
2022/02/24 00:35:15;;;;;;;;;;;;;;;18.10;55.47;100102.09;2058967;28;20000;-49
2022/02/24 00:36:16;;;;;;;;;;;;;;;18.11;55.66;100100.25;2061801;28;19913;-50
2022/02/24 00:37:16;;;;;;;;;;;;;;;18.11;55.45;100097.53;2056322;28;20704;-50
2022/02/24 00:38:16;;;;;;;;;;;;;;;18.11;55.53;100092.06;2062739;28;19932;-50
2022/02/24 00:39:17;;;;;;;;;;;;;;;18.11;55.50;100094.81;2058597;28;19986;-50
2022/02/24 00:40:17;;;;;;;;;;;;;;;18.11;55.62;100097.53;2055927;28;19913;-49
2022/02/24 00:41:18;;;;;;;;;;;;;;;18.09;55.72;100089.47;2059763;28;19984;-48
2022/02/24 00:42:18;;;;;;;;;;;;;;;18.08;55.72;100081.44;2057978;28;19913;-52
2022/02/24 00:43:19;;;;;;;;;;;;;;;18.09;55.60;100085.91;2060468;28;19928;-49
2022/02/24 00:44:19;;;;;;;;;;;;;;;18.08;55.74;100089.63;2059009;28;19921;-49
2022/02/24 00:45:20;;;;;;;;;;;;;;;18.08;55.88;100100.53;2059372;28;19921;-51
2022/02/24 00:46:20;;;;;;;;;;;;;;;18.07;55.60;100096.09;2059676;28;20395;-49
2022/02/24 00:47:20;;;;;;;;;;;;;;;18.06;55.72;100097.09;2059259;28;20208;-49
2022/02/24 00:48:21;;;;;;;;;;;;;;;18.06;55.90;100100.69;2059482;28;20283;-49
2022/02/24 00:49:22;;;;;;;;;;;;;;;18.06;55.67;100102.56;2060331;28;19928;-52
2022/02/24 00:50:22;;;;;;;;;;;;;;;18.05;55.78;100092.63;2056659;28;19925;-49
2022/02/24 00:51:23;;;;;;;;;;;;;;;18.04;55.88;100093.66;2061062;28;20237;-49
2022/02/24 00:52:23;;;;;;;;;;;;;;;18.02;55.68;100085.59;2057575;28;19925;-48
2022/02/24 00:53:24;;;;;;;;;;;;;;;18.02;56.01;100087.47;2061091;28;19921;-50
2022/02/24 00:54:24;;;;;;;;;;;;;;;18.00;55.85;100083.00;2057926;28;19921;-49
2022/02/24 00:55:25;;;;;;;;;;;;;;;18.00;56.04;100077.56;2060152;28;20024;-49
2022/02/24 00:56:26;;;;;;;;;;;;;;;17.99;55.98;100075.84;2059840;28;20504;-49
2022/02/24 00:57:26;;;;;;;;;;;;;;;17.98;56.00;100079.59;2060193;28;19925;-51
2022/02/24 00:58:26;;;;;;;;;;;;;;;17.99;56.15;100078.56;2060433;28;19940;-51
2022/02/24 00:59:27;;;;;;;;;;;;;;;17.96;56.12;100073.41;2058244;28;20867;-49
2022/02/24 01:00:27;;;;;;;;;;;;;;;17.97;55.90;100066.09;2060550;28;19921;-49
2022/02/24 01:01:27;;;;;;;;;;;;;;;17.97;55.92;100071.53;2059076;28;19921;-51
2022/02/24 01:02:28;;;;;;;;;;;;;;;17.98;56.04;100074.13;2059151;28;19928;-49
2022/02/24 01:03:28;;;;;;;;;;;;;;;17.97;56.00;100066.09;2059833;28;19929;-49
2022/02/24 01:04:28;;;;;;;;;;;;;;;17.98;55.76;100063.22;2058716;28;19960;-49
2022/02/24 01:05:29;;;;;;;;;;;;;;;17.99;55.66;100059.47;2060175;28;19968;-49
2022/02/24 01:06:29;;;;;;;;;;;;;;;17.99;55.85;100054.03;2050075;28;19968;-49
2022/02/24 01:07:29;;;;;;;;;;;;;;;17.99;55.78;100045.84;2052199;28;20180;-48
2022/02/24 01:08:29;;;;;;;;;;;;;;;17.99;55.66;100059.47;2050461;28;19921;-51
2022/02/24 01:09:30;;;;;;;;;;;;;;;17.99;55.88;100053.16;2055689;28;20293;-49
2022/02/24 01:10:30;;;;;;;;;;;;;;;17.98;55.88;100046.84;2059071;28;19917;-50
2022/02/24 01:11:30;;;;;;;;;;;;;;;17.97;55.85;100050.56;2058104;28;19933;-50
2022/02/24 01:12:31;;;;;;;;;;;;;;;17.98;55.71;100052.31;2061081;28;19961;-49
2022/02/24 01:13:31;;;;;;;;;;;;;;;17.99;55.82;100048.56;2059180;28;19922;-51
2022/02/24 01:14:31;;;;;;;;;;;;;;;17.99;55.81;100048.56;2060577;28;20327;-49
2022/02/24 01:15:32;;;;;;;;;;;;;;;17.99;55.94;100056.75;2048982;28;20861;-49
2022/02/24 01:16:32;;;;;;;;;;;;;;;18.00;55.90;100050.28;2050515;28;20298;-49
2022/02/24 01:17:33;;;;;;;;;;;;;;;18.02;55.71;100052.88;2060526;28;19968;-49
2022/02/24 01:18:33;;;;;;;;;;;;;;;18.03;55.77;100048.28;2058813;28;19936;-49
2022/02/24 01:19:34;;;;;;;;;;;;;;;18.02;55.63;100047.41;2060417;28;20170;-49
2022/02/24 01:20:34;;;;;;;;;;;;;;;18.03;55.88;100053.72;2059059;28;19917;-49
2022/02/24 01:21:34;;;;;;;;;;;;;;;18.00;55.83;100050.28;2058266;28;20050;-52
2022/02/24 01:22:35;;;;;;;;;;;;;;;18.02;55.88;100054.75;2056645;28;19924;-51
2022/02/24 01:23:35;;;;;;;;;;;;;;;18.02;55.77;100046.56;2059744;28;20346;-49
2022/02/24 01:24:36;;;;;;;;;;;;;;;18.03;55.78;100060.06;2059213;28;20602;-50
2022/02/24 01:25:36;;;;;;;;;;;;;;;18.03;55.70;100056.44;2056430;28;19940;-52
2022/02/24 01:26:36;;;;;;;;;;;;;;;18.04;55.78;100055.47;2060105;28;19957;-51
2022/02/24 01:27:37;;;;;;;;;;;;;;;18.04;55.82;100053.59;2054939;28;20266;-49
2022/02/24 01:28:37;;;;;;;;;;;;;;;18.03;55.55;100049.16;2055933;28;19917;-52
2022/02/24 01:29:37;;;;;;;;;;;;;;;18.03;55.68;100042.81;2061417;28;20256;-49
2022/02/24 01:30:38;;;;;;;;;;;;;;;18.05;55.49;100040.81;2058441;28;19921;-49
2022/02/24 01:31:39;;;;;;;;;;;;;;;18.04;55.60;100039.09;2059336;28;19917;-50
2022/02/24 01:32:39;;;;;;;;;;;;;;;18.04;55.57;100045.41;2059411;28;20368;-53
2022/02/24 01:33:40;;;;;;;;;;;;;;;18.04;55.60;100039.97;2057296;28;20004;-51
2022/02/24 01:34:40;;;;;;;;;;;;;;;18.04;55.57;100039.97;2059565;28;19931;-48
2022/02/24 01:35:41;;;;;;;;;;;;;;;18.05;55.68;100038.94;2058178;28;19921;-50
2022/02/24 01:36:41;;;;;;;;;;;;;;;18.04;55.60;100037.22;2060267;28;20358;-49
2022/02/24 01:37:42;;;;;;;;;;;;;;;18.06;55.55;100034.38;2059943;28;19917;-52
2022/02/24 01:38:42;;;;;;;;;;;;;;;18.06;55.47;100048.00;2056767;28;20069;-49
2022/02/24 01:39:42;;;;;;;;;;;;;;;18.06;55.50;100045.28;2060196;28;20361;-50
2022/02/24 01:40:43;;;;;;;;;;;;;;;18.06;55.50;100048.00;2058256;28;19921;-49
2022/02/24 01:41:43;;;;;;;;;;;;;;;18.07;55.56;100049.72;2059297;28;19980;-50
2022/02/24 01:42:44;;;;;;;;;;;;;;;18.05;55.59;100049.00;2058073;28;19953;-51
2022/02/24 01:43:46;;;;;;;;;;;;;;;18.05;55.58;100046.25;2057257;28;19925;-50
2022/02/24 01:44:46;;;;;;;;;;;;;;;18.03;55.62;100040.09;2056163;28;19921;-49
2022/02/24 01:45:47;;;;;;;;;;;;;;;18.03;55.46;100040.09;2063531;28;20355;-50
2022/02/24 01:46:47;;;;;;;;;;;;;;;18.04;55.65;100039.09;2058071;28;20170;-49
2022/02/24 01:47:47;;;;;;;;;;;;;;;18.02;55.55;100043.84;2060962;28;20623;-53
2022/02/24 01:48:48;;;;;;;;;;;;;;;18.02;55.55;100031.06;2056058;28;19920;-51
2022/02/24 01:49:48;;;;;;;;;;;;;;;18.01;55.79;100034.78;2059878;28;19921;-52
2022/02/24 01:50:49;;;;;;;;;;;;;;;17.99;55.81;100036.81;2052865;28;19928;-49
2022/02/24 01:51:49;;;;;;;;;;;;;;;17.98;55.71;100035.94;2061296;28;20367;-49
2022/02/24 01:52:50;;;;;;;;;;;;;;;17.96;55.72;100035.22;2060703;28;19952;-48
2022/02/24 01:53:51;;;;;;;;;;;;;;;17.95;55.81;100041.66;2056772;28;20401;-49
2022/02/24 01:54:51;;;;;;;;;;;;;;;17.94;55.85;100042.69;2059018;28;19921;-50
2022/02/24 01:55:52;;;;;;;;;;;;;;;17.94;55.70;100039.97;2058063;28;19925;-49
2022/02/24 01:56:53;;;;;;;;;;;;;;;17.93;55.95;100040.09;2058933;28;19921;-52
2022/02/24 01:57:53;;;;;;;;;;;;;;;17.91;55.92;100045.72;2055577;28;20014;-50
2022/02/24 01:58:54;;;;;;;;;;;;;;;17.93;55.88;100048.28;2059872;28;19921;-52
2022/02/24 01:59:55;;;;;;;;;;;;;;;17.90;56.12;100054.88;2058214;28;19952;-51
2022/02/24 02:00:55;;;;;;;;;;;;;;;17.91;55.94;100056.63;2055011;28;19914;-50
2022/02/24 02:01:56;;;;;;;;;;;;;;;17.91;55.81;100061.22;2056711;28;20275;-50
2022/02/24 02:02:56;;;;;;;;;;;;;;;17.90;56.01;100054.03;2059390;28;19932;-49
2022/02/24 02:03:57;;;;;;;;;;;;;;;17.90;56.01;100054.88;2057585;28;19960;-51
2022/02/24 02:04:57;;;;;;;;;;;;;;;17.90;55.89;100059.47;2049716;28;19914;-51
2022/02/24 02:05:57;;;;;;;;;;;;;;;17.90;55.87;100060.31;2049463;28;20101;-49
2022/02/24 02:06:58;;;;;;;;;;;;;;;17.90;55.99;100064.94;2055264;28;19919;-49
2022/02/24 02:07:59;;;;;;;;;;;;;;;17.90;55.86;100060.31;2058101;28;19917;-49
2022/02/24 02:08:59;;;;;;;;;;;;;;;17.90;55.71;100060.31;2057225;28;20043;-52
2022/02/24 02:10:00;;;;;;;;;;;;;;;17.90;55.63;100060.31;2059738;28;20387;-50
2022/02/24 02:11:00;;;;;;;;;;;;;;;17.90;55.67;100060.31;2056113;28;19996;-51
2022/02/24 02:12:00;;;;;;;;;;;;;;;17.90;55.89;100065.78;2059007;28;19917;-50
2022/02/24 02:13:01;;;;;;;;;;;;;;;17.90;55.84;100065.78;2053755;28;19928;-49
2022/02/24 02:14:01;;;;;;;;;;;;;;;17.93;55.72;100070.97;2051845;28;19921;-49
2022/02/24 02:15:02;;;;;;;;;;;;;;;17.93;55.84;100070.97;2060223;28;19928;-49
2022/02/24 02:16:03;;;;;;;;;;;;;;;17.95;55.66;100063.47;2058729;28;19999;-52
2022/02/24 02:17:04;;;;;;;;;;;;;;;17.97;55.75;100066.09;2061580;28;19926;-49
2022/02/24 02:18:04;;;;;;;;;;;;;;;17.95;55.76;100058.03;2061875;28;20358;-51
2022/02/24 02:19:04;;;;;;;;;;;;;;;17.97;55.75;100055.16;2058892;28;20001;-49
2022/02/24 02:20:05;;;;;;;;;;;;;;;17.96;55.52;100062.50;2058402;28;19921;-50
2022/02/24 02:21:05;;;;;;;;;;;;;;;17.96;55.51;100054.31;2057792;28;20568;-50
2022/02/24 02:22:06;;;;;;;;;;;;;;;17.96;55.84;100061.66;2060297;28;19976;-50
2022/02/24 02:23:06;;;;;;;;;;;;;;;17.96;55.78;100062.50;2057936;28;20342;-50
2022/02/24 02:24:07;;;;;;;;;;;;;;;17.98;55.72;100065.06;2060094;28;20600;-49
2022/02/24 02:25:08;;;;;;;;;;;;;;;17.96;55.76;100065.22;2060167;28;19920;-50
2022/02/24 02:26:08;;;;;;;;;;;;;;;17.96;55.61;100065.22;2058611;28;19921;-50
2022/02/24 02:27:08;;;;;;;;;;;;;;;17.96;55.74;100065.22;2058918;28;19926;-49
2022/02/24 02:28:12;;;;;;;;;;;;;;;17.98;55.77;100071.41;2061770;28;20233;-49
2022/02/24 02:29:13;;;;;;;;;;;;;;;17.96;55.60;100067.97;2056621;28;19921;-49
2022/02/24 02:30:13;;;;;;;;;;;;;;;17.96;55.64;100064.38;2051530;28;20226;-51
2022/02/24 02:31:18;;;;;;;;;;;;;;;17.95;55.81;100065.34;2049927;28;20259;-52
2022/02/24 02:32:18;;;;;;;;;;;;;;;17.94;55.67;100061.78;2059580;28;20507;-49
2022/02/24 02:33:18;;;;;;;;;;;;;;;17.94;55.67;100056.31;2060416;28;20275;-51
2022/02/24 02:34:19;;;;;;;;;;;;;;;17.95;55.71;100057.19;2056634;28;20012;-49
2022/02/24 02:35:19;;;;;;;;;;;;;;;17.93;55.58;100060.06;2059526;28;20075;-49
2022/02/24 02:36:19;;;;;;;;;;;;;;;17.93;55.88;100057.34;2055089;28;20210;-49
2022/02/24 02:37:20;;;;;;;;;;;;;;;17.94;55.82;100067.22;2058312;28;20330;-50
2022/02/24 02:38:20;;;;;;;;;;;;;;;17.94;55.74;100061.78;2059652;28;20418;-49
2022/02/24 02:39:20;;;;;;;;;;;;;;;17.95;55.67;100055.31;2058336;28;19956;-49
2022/02/24 02:40:21;;;;;;;;;;;;;;;17.96;55.52;100048.88;2057239;28;20328;-49
2022/02/24 02:41:21;;;;;;;;;;;;;;;17.96;55.60;100043.41;2060456;28;19943;-52
2022/02/24 02:42:21;;;;;;;;;;;;;;;17.95;55.50;100052.56;2059795;28;20047;-49
2022/02/24 02:43:22;;;;;;;;;;;;;;;17.95;55.67;100047.13;2058532;28;20378;-49
2022/02/24 02:44:22;;;;;;;;;;;;;;;17.95;55.69;100046.25;2057466;28;20024;-50
2022/02/24 02:45:22;;;;;;;;;;;;;;;17.94;55.58;100048.13;2059970;28;19957;-49
2022/02/24 02:46:23;;;;;;;;;;;;;;;17.93;55.61;100038.25;2058940;28;20126;-49
2022/02/24 02:47:23;;;;;;;;;;;;;;;17.93;55.44;100049.16;2058696;28;20360;-50
2022/02/24 02:48:23;;;;;;;;;;;;;;;17.93;55.52;100046.44;2062998;28;19925;-49
2022/02/24 02:49:24;;;;;;;;;;;;;;;17.91;55.54;100042.97;2053190;28;19914;-49
2022/02/24 02:50:24;;;;;;;;;;;;;;;17.93;55.70;100048.28;2053528;28;20132;-49
2022/02/24 02:51:24;;;;;;;;;;;;;;;17.90;55.67;100043.97;2059676;28;19925;-49
2022/02/24 02:52:25;;;;;;;;;;;;;;;17.89;55.73;100042.25;2057713;28;19920;-49
2022/02/24 02:53:25;;;;;;;;;;;;;;;17.89;55.79;100050.44;2059051;28;20040;-49
2022/02/24 02:54:25;;;;;;;;;;;;;;;17.89;55.60;100047.72;2056115;28;19922;-50
2022/02/24 02:55:26;;;;;;;;;;;;;;;17.89;55.68;100046.84;2059815;28;20223;-50
2022/02/24 02:56:26;;;;;;;;;;;;;;;17.87;55.82;100038.81;2055585;28;19957;-52
2022/02/24 02:57:26;;;;;;;;;;;;;;;17.86;55.95;100042.56;2059240;28;20324;-51
2022/02/24 02:58:27;;;;;;;;;;;;;;;17.86;55.79;100048.00;2060007;28;19933;-50
2022/02/24 02:59:27;;;;;;;;;;;;;;;17.86;55.85;100037.09;2059064;28;19921;-50
2022/02/24 03:00:28;;;;;;;;;;;;;;;17.85;55.84;100032.63;2056317;28;20319;-49
2022/02/24 03:01:28;;;;;;;;;;;;;;;17.84;55.93;100033.66;2060172;28;20339;-51
2022/02/24 03:02:29;;;;;;;;;;;;;;;17.85;55.91;100040.81;2056487;28;20158;-52
2022/02/24 03:03:29;;;;;;;;;;;;;;;17.84;55.81;100041.81;2058501;28;19921;-52
2022/02/24 03:04:30;;;;;;;;;;;;;;;17.87;55.82;100043.41;2057238;28;20288;-52
2022/02/24 03:05:30;;;;;;;;;;;;;;;17.87;55.74;100037.94;2061233;28;19925;-50
2022/02/24 03:06:30;;;;;;;;;;;;;;;17.89;55.66;100042.25;2056007;28;19932;-50
2022/02/24 03:07:31;;;;;;;;;;;;;;;17.89;55.84;100038.69;2059116;28;20345;-50
2022/02/24 03:08:31;;;;;;;;;;;;;;;17.90;55.79;100040.38;2057391;28;20452;-52
2022/02/24 03:09:31;;;;;;;;;;;;;;;17.89;55.80;100031.34;2057995;28;19956;-53
2022/02/24 03:10:32;;;;;;;;;;;;;;;17.90;55.63;100033.06;2059995;28;20120;-50
2022/02/24 03:11:32;;;;;;;;;;;;;;;17.91;55.69;100029.34;2058937;28;19913;-50
2022/02/24 03:12:36;;;;;;;;;;;;;;;17.92;55.80;100044.69;2058064;28;20386;-50
2022/02/24 03:13:37;;;;;;;;;;;;;;;17.93;55.66;100040.97;2063244;28;19913;-49
2022/02/24 03:14:38;;;;;;;;;;;;;;;17.93;55.61;100042.81;2057542;28;19925;-50
2022/02/24 03:15:38;;;;;;;;;;;;;;;17.94;55.61;100044.56;2059525;28;19971;-52
2022/02/24 03:16:39;;;;;;;;;;;;;;;17.95;55.53;100033.47;2055985;28;20342;-52
2022/02/24 03:17:49;;;;;;;;;;;;;;;17.95;55.67;100041.66;2059443;28;19921;-49
2022/02/24 03:18:50;;;;;;;;;;;;;;;17.95;55.59;100036.22;2057854;28;20304;-47
2022/02/24 03:19:50;;;;;;;;;;;;;;;17.95;55.44;100036.22;2057945;28;19947;-48
2022/02/24 03:20:50;;;;;;;;;;;;;;;17.93;55.47;100038.25;2059678;28;20348;-49
2022/02/24 03:21:51;;;;;;;;;;;;;;;17.93;55.51;100035.53;2057033;28;20219;-48
2022/02/24 03:22:51;;;;;;;;;;;;;;;17.91;55.49;100045.72;2059335;28;19967;-50
2022/02/24 03:23:51;;;;;;;;;;;;;;;17.92;55.61;100047.41;2058515;28;20366;-50
2022/02/24 03:24:51;;;;;;;;;;;;;;;17.90;55.79;100043.97;2057464;28;20253;-48
2022/02/24 03:25:52;;;;;;;;;;;;;;;17.90;55.89;100052.16;2060220;28;19967;-48
2022/02/24 03:26:52;;;;;;;;;;;;;;;17.90;55.84;100052.16;2056090;28;20012;-48
2022/02/24 03:27:53;;;;;;;;;;;;;;;17.88;55.73;100048.69;2058889;28;19928;-49
2022/02/24 03:28:54;;;;;;;;;;;;;;;17.88;55.63;100045.97;2057872;28;20255;-51
2022/02/24 03:29:54;;;;;;;;;;;;;;;17.87;55.83;100048.88;2049622;28;19926;-50
2022/02/24 03:30:54;;;;;;;;;;;;;;;17.88;55.63;100050.56;2050056;28;20012;-50
2022/02/24 03:31:55;;;;;;;;;;;;;;;17.87;55.73;100049.72;2057557;28;19932;-49
2022/02/24 03:32:55;;;;;;;;;;;;;;;17.86;55.61;100048.00;2058944;28;19921;-51
2022/02/24 03:33:56;;;;;;;;;;;;;;;17.85;55.68;100046.25;2058871;28;19921;-52
2022/02/24 03:34:57;;;;;;;;;;;;;;;17.87;55.82;100037.94;2058320;28;19949;-49
2022/02/24 03:35:57;;;;;;;;;;;;;;;17.86;55.79;100047.13;2060206;28;19961;-51
2022/02/24 03:36:58;;;;;;;;;;;;;;;17.85;55.88;100042.69;2057517;28;20552;-49
2022/02/24 03:37:59;;;;;;;;;;;;;;;17.84;55.93;100041.81;2059251;28;20379;-49
2022/02/24 03:38:59;;;;;;;;;;;;;;;17.84;55.67;100033.66;2059174;28;19921;-52
2022/02/24 03:39:59;;;;;;;;;;;;;;;17.82;55.99;100034.78;2058127;28;19909;-49
2022/02/24 03:40:59;;;;;;;;;;;;;;;17.82;55.69;100035.66;2060694;28;20430;-49
2022/02/24 03:42:00;;;;;;;;;;;;;;;17.83;55.61;100042.81;2049424;28;20399;-50
2022/02/24 03:43:00;;;;;;;;;;;;;;;17.85;55.81;100034.50;2047964;28;20037;-50
2022/02/24 03:44:00;;;;;;;;;;;;;;;17.84;55.75;100032.78;2051383;28;20230;-50
2022/02/24 03:45:01;;;;;;;;;;;;;;;17.85;55.67;100035.34;2049214;28;20143;-50
2022/02/24 03:46:02;;;;;;;;;;;;;;;17.86;55.68;100030.75;2059450;28;20018;-50
2022/02/24 03:47:02;;;;;;;;;;;;;;;17.85;55.60;100024.44;2059958;28;19944;-49
2022/02/24 03:48:03;;;;;;;;;;;;;;;17.83;55.71;100021.00;2056865;28;20012;-50
2022/02/24 03:49:04;;;;;;;;;;;;;;;17.83;55.78;100021.00;2060146;28;19922;-49
2022/02/24 03:50:05;;;;;;;;;;;;;;;17.82;55.64;100022.03;2059217;28;19925;-51
2022/02/24 03:51:05;;;;;;;;;;;;;;;17.84;55.60;100021.88;2060572;28;19913;-49
2022/02/24 03:52:06;;;;;;;;;;;;;;;17.83;55.59;100022.88;2054702;28;19921;-50
2022/02/24 03:53:06;;;;;;;;;;;;;;;17.83;55.67;100021.00;2058522;28;21107;-49
2022/02/24 03:54:06;;;;;;;;;;;;;;;17.83;55.75;100018.28;2058900;28;19927;-50
2022/02/24 03:55:07;;;;;;;;;;;;;;;17.81;55.61;100023.03;2058105;28;20373;-50
2022/02/24 03:56:08;;;;;;;;;;;;;;;17.82;55.66;100018.44;2058345;28;19921;-50
2022/02/24 03:57:08;;;;;;;;;;;;;;;17.80;55.61;100021.28;2060320;28;20701;-49
2022/02/24 03:58:08;;;;;;;;;;;;;;;17.81;55.93;100016.69;2058038;28;19926;-50
2022/02/24 03:59:09;;;;;;;;;;;;;;;17.82;55.87;100019.28;2059684;28;19921;-50
2022/02/24 04:00:09;;;;;;;;;;;;;;;17.82;55.73;100021.16;2058656;28;19921;-51
2022/02/24 04:01:09;;;;;;;;;;;;;;;17.82;55.74;100019.28;2057781;28;19921;-49
2022/02/24 04:02:10;;;;;;;;;;;;;;;17.82;55.76;100019.28;2057659;28;19917;-49
2022/02/24 04:03:11;;;;;;;;;;;;;;;17.83;55.87;100021.00;2059162;28;19929;-49
2022/02/24 04:04:12;;;;;;;;;;;;;;;17.83;55.58;100023.72;2057405;28;19921;-50
2022/02/24 04:05:15;;;;;;;;;;;;;;;17.83;55.69;100021.00;2060491;28;19922;-53
2022/02/24 04:06:15;;;;;;;;;;;;;;;17.84;55.84;100020.00;2056347;28;20365;-50
2022/02/24 04:07:16;;;;;;;;;;;;;;;17.83;55.67;100026.44;2058291;28;20506;-50
2022/02/24 04:08:16;;;;;;;;;;;;;;;17.86;55.71;100034.38;2058681;28;20286;-49
2022/02/24 04:09:16;;;;;;;;;;;;;;;17.85;55.72;100046.25;2057981;28;19917;-52
2022/02/24 04:10:17;;;;;;;;;;;;;;;17.85;55.66;100032.63;2059508;28;19921;-49
2022/02/24 04:11:17;;;;;;;;;;;;;;;17.86;55.83;100041.66;2057465;28;19921;-50
2022/02/24 04:12:18;;;;;;;;;;;;;;;17.86;55.79;100041.66;2055786;28;20438;-52
2022/02/24 04:13:19;;;;;;;;;;;;;;;17.85;55.68;100043.53;2060156;28;20031;-50
2022/02/24 04:14:19;;;;;;;;;;;;;;;17.87;55.66;100048.88;2057815;28;19932;-50
2022/02/24 04:15:19;;;;;;;;;;;;;;;17.87;55.78;100047.00;2059259;28;19928;-51
2022/02/24 04:16:20;;;;;;;;;;;;;;;17.88;55.45;100039.66;2058641;28;19921;-50
2022/02/24 04:17:20;;;;;;;;;;;;;;;17.87;55.46;100054.31;2058436;28;19914;-50
2022/02/24 04:18:20;;;;;;;;;;;;;;;17.88;55.50;100045.13;2058061;28;19986;-52
2022/02/24 04:19:21;;;;;;;;;;;;;;;17.89;55.46;100036.81;2059835;28;20566;-52
2022/02/24 04:20:21;;;;;;;;;;;;;;;17.89;55.66;100035.94;2058384;28;19964;-49
2022/02/24 04:21:21;;;;;;;;;;;;;;;17.90;55.47;100035.78;2058909;28;19928;-50
2022/02/24 04:22:21;;;;;;;;;;;;;;;17.89;55.39;100036.81;2059409;28;20337;-52
2022/02/24 04:23:22;;;;;;;;;;;;;;;17.89;55.51;100041.41;2055439;28;19925;-51
2022/02/24 04:24:22;;;;;;;;;;;;;;;17.88;55.48;100039.66;2061688;28;20329;-52
2022/02/24 04:25:22;;;;;;;;;;;;;;;17.88;55.60;100040.50;2051905;28;19922;-50
2022/02/24 04:26:23;;;;;;;;;;;;;;;17.86;55.60;100034.38;2059507;28;19925;-51
2022/02/24 04:27:23;;;;;;;;;;;;;;;17.86;55.68;100036.22;2057965;28;19922;-48
2022/02/24 04:28:23;;;;;;;;;;;;;;;17.83;55.65;100040.09;2058127;28;19917;-48
2022/02/24 04:29:24;;;;;;;;;;;;;;;17.83;55.89;100036.50;2060801;28;20276;-49
2022/02/24 04:30:25;;;;;;;;;;;;;;;17.83;55.78;100037.34;2059104;28;19921;-49
2022/02/24 04:31:25;;;;;;;;;;;;;;;17.81;55.72;100042.13;2059173;28;19925;-50
2022/02/24 04:32:26;;;;;;;;;;;;;;;17.81;55.91;100042.13;2059701;28;19926;-50
2022/02/24 04:33:26;;;;;;;;;;;;;;;17.80;55.78;100043.09;2056404;28;19925;-49
2022/02/24 04:34:26;;;;;;;;;;;;;;;17.78;55.86;100035.06;2059597;28;20320;-49
2022/02/24 04:35:27;;;;;;;;;;;;;;;17.78;55.95;100045.06;2058538;28;19960;-52
2022/02/24 04:36:27;;;;;;;;;;;;;;;17.79;55.67;100041.38;2057942;28;19928;-49
2022/02/24 04:37:27;;;;;;;;;;;;;;;17.78;55.93;100039.63;2058616;28;19914;-49
2022/02/24 04:38:28;;;;;;;;;;;;;;;17.78;55.98;100039.63;2058749;28;19929;-50
2022/02/24 04:39:28;;;;;;;;;;;;;;;17.77;55.89;100033.31;2057987;28;19932;-49
2022/02/24 04:40:28;;;;;;;;;;;;;;;17.78;55.92;100034.16;2058356;28;19921;-49
2022/02/24 04:41:29;;;;;;;;;;;;;;;17.78;55.74;100039.63;2049763;28;20424;-50
2022/02/24 04:42:29;;;;;;;;;;;;;;;17.77;55.90;100038.78;2050444;28;19917;-49
2022/02/24 04:43:29;;;;;;;;;;;;;;;17.77;55.78;100046.09;2055189;28;20248;-49
2022/02/24 04:44:29;;;;;;;;;;;;;;;17.78;55.93;100047.81;2058510;28;20101;-52
2022/02/24 04:45:30;;;;;;;;;;;;;;;17.77;55.69;100043.38;2057181;28;19932;-50
2022/02/24 04:46:31;;;;;;;;;;;;;;;17.78;55.70;100045.06;2058119;28;19960;-50
2022/02/24 04:47:31;;;;;;;;;;;;;;;17.79;55.72;100044.09;2058571;28;19944;-52
2022/02/24 04:48:32;;;;;;;;;;;;;;;17.80;55.73;100048.56;2056470;28;19979;-52
2022/02/24 04:49:33;;;;;;;;;;;;;;;17.82;55.55;100049.28;2057791;28;20456;-52
2022/02/24 04:50:34;;;;;;;;;;;;;;;17.82;55.67;100041.09;2054263;28;19918;-51
2022/02/24 04:51:34;;;;;;;;;;;;;;;17.84;55.52;100050.00;2057845;28;19956;-50
2022/02/24 04:52:35;;;;;;;;;;;;;;;17.85;55.44;100046.25;2059974;28;20343;-51
2022/02/24 04:53:36;;;;;;;;;;;;;;;17.84;55.61;100039.09;2056350;28;20562;-52
2022/02/24 04:54:36;;;;;;;;;;;;;;;17.86;55.47;100045.28;2058918;28;20028;-49
2022/02/24 04:55:37;;;;;;;;;;;;;;;17.86;55.38;100042.56;2057392;28;19921;-49
2022/02/24 04:56:37;;;;;;;;;;;;;;;17.86;55.41;100031.66;2057222;28;19921;-50
2022/02/24 04:57:38;;;;;;;;;;;;;;;17.86;55.56;100031.66;2059381;28;19922;-49
2022/02/24 04:58:38;;;;;;;;;;;;;;;17.85;55.55;100024.44;2055614;28;20304;-50
2022/02/24 04:59:38;;;;;;;;;;;;;;;17.85;55.49;100029.06;2058510;28;19918;-49
2022/02/24 05:00:39;;;;;;;;;;;;;;;17.85;55.49;100035.34;2056985;28;19972;-49
2022/02/24 05:01:39;;;;;;;;;;;;;;;17.85;55.46;100023.59;2058931;28;19921;-49
2022/02/24 05:02:40;;;;;;;;;;;;;;;17.86;55.53;100028.03;2059295;28;19925;-50
2022/02/24 05:03:40;;;;;;;;;;;;;;;17.84;55.60;100021.88;2051156;28;19925;-49
2022/02/24 05:04:40;;;;;;;;;;;;;;;17.85;55.59;100032.63;2048885;28;19948;-52
2022/02/24 05:05:42;;;;;;;;;;;;;;;17.84;55.78;100033.66;2060348;28;20340;-50
2022/02/24 05:06:43;;;;;;;;;;;;;;;17.83;55.58;100026.44;2056506;28;20390;-49
2022/02/24 05:07:43;;;;;;;;;;;;;;;17.83;55.70;100026.44;2057844;28;19913;-51
2022/02/24 05:08:43;;;;;;;;;;;;;;;17.84;55.76;100027.34;2056561;28;20253;-49
2022/02/24 05:09:44;;;;;;;;;;;;;;;17.83;55.65;100026.44;2049948;28;19921;-49
2022/02/24 05:10:44;;;;;;;;;;;;;;;17.83;55.73;100023.72;2050481;28;19946;-52